sensor_id;sensor_type;location;lat;lon;timestamp;temperature;humidity
42141;DHT22;27809;51.864;5.646;2022-07-30T00:01:14;15.90;99.90
42141;DHT22;27809;51.864;5.646;2022-07-30T00:03:39;15.90;99.90
42141;DHT22;27809;51.864;5.646;2022-07-30T00:06:05;15.90;99.90
42141;DHT22;27809;51.864;5.646;2022-07-30T00:08:31;15.90;99.90
42141;DHT22;27809;51.864;5.646;2022-07-30T00:10:56;15.90;99.90
42141;DHT22;27809;51.864;5.646;2022-07-30T00:13:22;16.00;99.90
42141;DHT22;27809;51.864;5.646;2022-07-30T00:15:47;15.90;99.90
42141;DHT22;27809;51.864;5.646;2022-07-30T00:18:13;16.20;99.90
42141;DHT22;27809;51.864;5.646;2022-07-30T00:20:40;16.20;99.90
42141;DHT22;27809;51.864;5.646;2022-07-30T00:23:06;16.00;99.90
42141;DHT22;27809;51.864;5.646;2022-07-30T00:25:31;16.00;99.90
42141;DHT22;27809;51.864;5.646;2022-07-30T00:27:57;16.00;99.90
42141;DHT22;27809;51.864;5.646;2022-07-30T00:30:23;16.10;99.90
42141;DHT22;27809;51.864;5.646;2022-07-30T00:32:49;16.00;99.90
42141;DHT22;27809;51.864;5.646;2022-07-30T00:35:15;15.90;99.90
42141;DHT22;27809;51.864;5.646;2022-07-30T00:37:40;15.80;99.90
42141;DHT22;27809;51.864;5.646;2022-07-30T00:40:07;15.80;99.90
42141;DHT22;27809;51.864;5.646;2022-07-30T00:42:41;15.80;99.90
42141;DHT22;27809;51.864;5.646;2022-07-30T00:45:08;15.90;99.90
42141;DHT22;27809;51.864;5.646;2022-07-30T00:47:35;16.00;99.90
42141;DHT22;27809;51.864;5.646;2022-07-30T00:50:00;15.90;99.90
42141;DHT22;27809;51.864;5.646;2022-07-30T00:52:30;16.20;99.90
42141;DHT22;27809;51.864;5.646;2022-07-30T00:54:56;16.10;99.90
42141;DHT22;27809;51.864;5.646;2022-07-30T00:57:22;16.10;99.90
42141;DHT22;27809;51.864;5.646;2022-07-30T00:59:47;16.10;99.90
42141;DHT22;27809;51.864;5.646;2022-07-30T01:02:13;16.00;99.90
42141;DHT22;27809;51.864;5.646;2022-07-30T01:04:38;16.00;99.90
42141;DHT22;27809;51.864;5.646;2022-07-30T01:07:04;15.90;99.90
42141;DHT22;27809;51.864;5.646;2022-07-30T01:09:30;15.80;99.90
42141;DHT22;27809;51.864;5.646;2022-07-30T01:11:55;15.80;99.90
42141;DHT22;27809;51.864;5.646;2022-07-30T01:14:21;15.80;99.90
42141;DHT22;27809;51.864;5.646;2022-07-30T01:16:47;15.80;99.90
42141;DHT22;27809;51.864;5.646;2022-07-30T01:19:22;15.70;99.90
42141;DHT22;27809;51.864;5.646;2022-07-30T01:28:18;15.90;99.90
42141;DHT22;27809;51.864;5.646;2022-07-30T01:30:40;16.00;99.90
42141;DHT22;27809;51.864;5.646;2022-07-30T01:33:08;15.80;99.90
42141;DHT22;27809;51.864;5.646;2022-07-30T01:35:36;15.70;99.90
42141;DHT22;27809;51.864;5.646;2022-07-30T01:38:03;15.70;99.90
42141;DHT22;27809;51.864;5.646;2022-07-30T01:40:30;15.90;99.90
42141;DHT22;27809;51.864;5.646;2022-07-30T01:42:57;15.80;99.90
42141;DHT22;27809;51.864;5.646;2022-07-30T01:45:24;15.60;99.90
42141;DHT22;27809;51.864;5.646;2022-07-30T01:47:52;15.70;99.90
42141;DHT22;27809;51.864;5.646;2022-07-30T01:50:19;15.60;99.90
42141;DHT22;27809;51.864;5.646;2022-07-30T01:52:46;15.50;99.90
42141;DHT22;27809;51.864;5.646;2022-07-30T01:55:15;15.40;99.90
42141;DHT22;27809;51.864;5.646;2022-07-30T01:57:43;15.30;99.90
42141;DHT22;27809;51.864;5.646;2022-07-30T02:00:10;15.30;99.90
42141;DHT22;27809;51.864;5.646;2022-07-30T02:02:36;15.40;99.90
42141;DHT22;27809;51.864;5.646;2022-07-30T02:05:04;15.50;99.90
42141;DHT22;27809;51.864;5.646;2022-07-30T02:08:00;15.40;99.90
42141;DHT22;27809;51.864;5.646;2022-07-30T02:10:39;15.30;99.90
42141;DHT22;27809;51.864;5.646;2022-07-30T02:13:06;15.30;99.90
42141;DHT22;27809;51.864;5.646;2022-07-30T02:15:51;15.20;99.90
42141;DHT22;27809;51.864;5.646;2022-07-30T02:18:30;15.30;99.90
42141;DHT22;27809;51.864;5.646;2022-07-30T02:21:00;15.30;99.90
42141;DHT22;27809;51.864;5.646;2022-07-30T02:23:28;15.20;99.90
42141;DHT22;27809;51.864;5.646;2022-07-30T02:25:56;15.20;99.90
42141;DHT22;27809;51.864;5.646;2022-07-30T02:28:24;15.20;99.90
42141;DHT22;27809;51.864;5.646;2022-07-30T02:30:53;15.10;99.90
42141;DHT22;27809;51.864;5.646;2022-07-30T02:33:25;15.10;99.90
42141;DHT22;27809;51.864;5.646;2022-07-30T02:35:52;15.00;99.90
42141;DHT22;27809;51.864;5.646;2022-07-30T02:38:19;15.20;99.90
42141;DHT22;27809;51.864;5.646;2022-07-30T02:40:46;15.00;99.90
42141;DHT22;27809;51.864;5.646;2022-07-30T02:43:14;14.90;99.90
42141;DHT22;27809;51.864;5.646;2022-07-30T02:45:41;15.00;99.90
42141;DHT22;27809;51.864;5.646;2022-07-30T02:48:09;15.00;99.90
42141;DHT22;27809;51.864;5.646;2022-07-30T02:50:36;14.90;99.90
42141;DHT22;27809;51.864;5.646;2022-07-30T02:53:05;14.80;99.90
42141;DHT22;27809;51.864;5.646;2022-07-30T02:55:33;14.80;99.90
42141;DHT22;27809;51.864;5.646;2022-07-30T02:58:00;14.80;99.90
42141;DHT22;27809;51.864;5.646;2022-07-30T03:00:27;14.70;99.90
42141;DHT22;27809;51.864;5.646;2022-07-30T03:02:55;14.80;99.90
42141;DHT22;27809;51.864;5.646;2022-07-30T03:05:22;14.80;99.90
42141;DHT22;27809;51.864;5.646;2022-07-30T03:07:48;14.80;99.90
42141;DHT22;27809;51.864;5.646;2022-07-30T03:10:14;14.70;99.90
42141;DHT22;27809;51.864;5.646;2022-07-30T03:12:43;14.60;99.90
42141;DHT22;27809;51.864;5.646;2022-07-30T03:15:10;14.60;99.90
42141;DHT22;27809;51.864;5.646;2022-07-30T03:17:44;14.60;99.90
42141;DHT22;27809;51.864;5.646;2022-07-30T03:20:13;14.60;99.90
42141;DHT22;27809;51.864;5.646;2022-07-30T03:22:42;14.60;99.90
42141;DHT22;27809;51.864;5.646;2022-07-30T03:25:09;14.60;99.90
42141;DHT22;27809;51.864;5.646;2022-07-30T03:27:36;14.60;99.90
42141;DHT22;27809;51.864;5.646;2022-07-30T03:30:03;14.50;99.90
42141;DHT22;27809;51.864;5.646;2022-07-30T03:32:30;14.40;99.90
42141;DHT22;27809;51.864;5.646;2022-07-30T03:34:56;14.60;99.90
42141;DHT22;27809;51.864;5.646;2022-07-30T03:37:23;14.50;99.90
42141;DHT22;27809;51.864;5.646;2022-07-30T03:39:49;14.50;99.90
42141;DHT22;27809;51.864;5.646;2022-07-30T03:42:15;14.50;99.90
42141;DHT22;27809;51.864;5.646;2022-07-30T03:44:41;14.40;99.90
42141;DHT22;27809;51.864;5.646;2022-07-30T03:47:10;14.40;99.90
42141;DHT22;27809;51.864;5.646;2022-07-30T03:49:36;14.40;99.90
42141;DHT22;27809;51.864;5.646;2022-07-30T03:52:02;14.30;99.90
42141;DHT22;27809;51.864;5.646;2022-07-30T03:54:30;14.30;99.90
42141;DHT22;27809;51.864;5.646;2022-07-30T03:56:59;14.30;99.90
42141;DHT22;27809;51.864;5.646;2022-07-30T03:59:25;14.30;99.90
42141;DHT22;27809;51.864;5.646;2022-07-30T04:01:51;14.20;99.90
42141;DHT22;27809;51.864;5.646;2022-07-30T04:04:16;14.20;99.90
42141;DHT22;27809;51.864;5.646;2022-07-30T04:06:42;14.30;99.90
42141;DHT22;27809;51.864;5.646;2022-07-30T04:09:09;14.20;99.90
42141;DHT22;27809;51.864;5.646;2022-07-30T04:11:35;14.20;99.90
42141;DHT22;27809;51.864;5.646;2022-07-30T04:14:01;14.10;99.90
42141;DHT22;27809;51.864;5.646;2022-07-30T04:16:43;14.20;99.90
42141;DHT22;27809;51.864;5.646;2022-07-30T04:19:37;14.10;99.90
42141;DHT22;27809;51.864;5.646;2022-07-30T04:22:01;14.10;99.90
42141;DHT22;27809;51.864;5.646;2022-07-30T04:24:27;14.30;99.90
42141;DHT22;27809;51.864;5.646;2022-07-30T04:26:54;14.20;99.90
42141;DHT22;27809;51.864;5.646;2022-07-30T04:29:20;14.30;99.90
42141;DHT22;27809;51.864;5.646;2022-07-30T04:31:46;14.20;99.90
42141;DHT22;27809;51.864;5.646;2022-07-30T04:34:14;14.30;99.90
42141;DHT22;27809;51.864;5.646;2022-07-30T04:36:41;14.30;99.90
42141;DHT22;27809;51.864;5.646;2022-07-30T04:39:07;14.30;99.90
42141;DHT22;27809;51.864;5.646;2022-07-30T04:41:33;14.30;99.90
42141;DHT22;27809;51.864;5.646;2022-07-30T04:43:58;14.40;99.90
42141;DHT22;27809;51.864;5.646;2022-07-30T04:46:24;14.40;99.90
42141;DHT22;27809;51.864;5.646;2022-07-30T04:48:49;14.40;99.90
42141;DHT22;27809;51.864;5.646;2022-07-30T04:51:25;14.50;99.90
42141;DHT22;27809;51.864;5.646;2022-07-30T04:53:52;14.40;99.90
42141;DHT22;27809;51.864;5.646;2022-07-30T04:56:20;14.40;99.90
42141;DHT22;27809;51.864;5.646;2022-07-30T04:58:46;14.50;99.90
42141;DHT22;27809;51.864;5.646;2022-07-30T05:01:17;14.50;99.90
42141;DHT22;27809;51.864;5.646;2022-07-30T05:03:44;14.50;99.90
42141;DHT22;27809;51.864;5.646;2022-07-30T05:06:11;14.60;99.90
42141;DHT22;27809;51.864;5.646;2022-07-30T05:08:37;14.70;99.90
42141;DHT22;27809;51.864;5.646;2022-07-30T05:11:03;14.70;99.90
42141;DHT22;27809;51.864;5.646;2022-07-30T05:13:29;14.70;99.90
42141;DHT22;27809;51.864;5.646;2022-07-30T05:15:54;14.70;99.90
42141;DHT22;27809;51.864;5.646;2022-07-30T05:18:20;14.80;99.90
42141;DHT22;27809;51.864;5.646;2022-07-30T05:20:45;14.80;99.90
42141;DHT22;27809;51.864;5.646;2022-07-30T05:23:11;14.80;99.90
42141;DHT22;27809;51.864;5.646;2022-07-30T05:25:36;14.90;99.90
42141;DHT22;27809;51.864;5.646;2022-07-30T05:28:02;14.90;99.90
42141;DHT22;27809;51.864;5.646;2022-07-30T05:30:27;15.00;99.90
42141;DHT22;27809;51.864;5.646;2022-07-30T05:32:53;15.10;99.90
42141;DHT22;27809;51.864;5.646;2022-07-30T05:35:19;15.20;99.90
42141;DHT22;27809;51.864;5.646;2022-07-30T05:37:44;15.20;99.90
42141;DHT22;27809;51.864;5.646;2022-07-30T05:40:10;15.20;99.90
42141;DHT22;27809;51.864;5.646;2022-07-30T05:42:36;15.30;99.90
42141;DHT22;27809;51.864;5.646;2022-07-30T05:45:02;15.40;99.90
42141;DHT22;27809;51.864;5.646;2022-07-30T05:47:27;15.50;99.90
42141;DHT22;27809;51.864;5.646;2022-07-30T05:49:53;15.60;99.90
42141;DHT22;27809;51.864;5.646;2022-07-30T05:52:18;15.60;99.90
42141;DHT22;27809;51.864;5.646;2022-07-30T05:54:44;15.80;99.90
42141;DHT22;27809;51.864;5.646;2022-07-30T05:57:10;15.80;99.90
42141;DHT22;27809;51.864;5.646;2022-07-30T05:59:35;15.90;99.90
42141;DHT22;27809;51.864;5.646;2022-07-30T06:02:01;15.90;99.90
42141;DHT22;27809;51.864;5.646;2022-07-30T06:04:27;16.00;99.90
42141;DHT22;27809;51.864;5.646;2022-07-30T06:06:53;16.10;99.90
42141;DHT22;27809;51.864;5.646;2022-07-30T06:09:19;17.00;99.90
42141;DHT22;27809;51.864;5.646;2022-07-30T06:11:44;17.00;99.90
42141;DHT22;27809;51.864;5.646;2022-07-30T06:14:10;16.70;99.90
42141;DHT22;27809;51.864;5.646;2022-07-30T06:16:35;16.60;99.90
42141;DHT22;27809;51.864;5.646;2022-07-30T06:19:01;16.60;99.90
42141;DHT22;27809;51.864;5.646;2022-07-30T06:21:26;16.60;99.90
42141;DHT22;27809;51.864;5.646;2022-07-30T06:23:52;16.50;99.90
42141;DHT22;27809;51.864;5.646;2022-07-30T06:26:17;16.60;99.90
42141;DHT22;27809;51.864;5.646;2022-07-30T06:28:43;16.70;99.90
42141;DHT22;27809;51.864;5.646;2022-07-30T06:31:08;16.80;99.90
42141;DHT22;27809;51.864;5.646;2022-07-30T06:33:34;16.90;99.90
42141;DHT22;27809;51.864;5.646;2022-07-30T06:36:00;17.00;99.90
42141;DHT22;27809;51.864;5.646;2022-07-30T06:38:25;17.20;99.90
42141;DHT22;27809;51.864;5.646;2022-07-30T06:40:51;17.40;99.90
42141;DHT22;27809;51.864;5.646;2022-07-30T06:43:16;17.30;99.90
42141;DHT22;27809;51.864;5.646;2022-07-30T06:45:43;17.50;99.90
42141;DHT22;27809;51.864;5.646;2022-07-30T06:48:09;17.60;99.90
42141;DHT22;27809;51.864;5.646;2022-07-30T06:50:35;17.50;99.90
42141;DHT22;27809;51.864;5.646;2022-07-30T06:53:01;17.60;99.90
42141;DHT22;27809;51.864;5.646;2022-07-30T06:55:27;17.70;99.90
42141;DHT22;27809;51.864;5.646;2022-07-30T06:57:52;17.50;99.90
42141;DHT22;27809;51.864;5.646;2022-07-30T07:00:18;17.60;99.90
42141;DHT22;27809;51.864;5.646;2022-07-30T07:02:43;17.80;99.90
42141;DHT22;27809;51.864;5.646;2022-07-30T07:05:09;18.00;99.90
42141;DHT22;27809;51.864;5.646;2022-07-30T07:07:35;18.20;99.90
42141;DHT22;27809;51.864;5.646;2022-07-30T07:10:01;18.40;99.90
42141;DHT22;27809;51.864;5.646;2022-07-30T07:12:26;18.60;99.90
42141;DHT22;27809;51.864;5.646;2022-07-30T07:14:52;20.10;99.90
42141;DHT22;27809;51.864;5.646;2022-07-30T07:17:17;20.40;99.60
42141;DHT22;27809;51.864;5.646;2022-07-30T07:19:43;20.40;99.50
42141;DHT22;27809;51.864;5.646;2022-07-30T07:22:08;20.50;96.60
42141;DHT22;27809;51.864;5.646;2022-07-30T07:24:34;20.90;95.00
42141;DHT22;27809;51.864;5.646;2022-07-30T07:26:59;20.50;97.60
42141;DHT22;27809;51.864;5.646;2022-07-30T07:29:25;20.40;97.00
42141;DHT22;27809;51.864;5.646;2022-07-30T07:31:50;20.70;95.60
42141;DHT22;27809;51.864;5.646;2022-07-30T07:34:16;21.00;95.20
42141;DHT22;27809;51.864;5.646;2022-07-30T07:36:41;21.10;94.40
42141;DHT22;27809;51.864;5.646;2022-07-30T07:39:07;21.10;94.40
42141;DHT22;27809;51.864;5.646;2022-07-30T07:41:35;21.10;93.40
42141;DHT22;27809;51.864;5.646;2022-07-30T07:44:01;20.80;94.20
42141;DHT22;27809;51.864;5.646;2022-07-30T07:46:26;20.30;95.90
42141;DHT22;27809;51.864;5.646;2022-07-30T07:48:52;20.20;93.00
42141;DHT22;27809;51.864;5.646;2022-07-30T07:51:17;20.30;92.50
42141;DHT22;27809;51.864;5.646;2022-07-30T07:53:45;20.40;94.70
42141;DHT22;27809;51.864;5.646;2022-07-30T07:56:10;21.00;91.00
42141;DHT22;27809;51.864;5.646;2022-07-30T07:58:36;20.90;91.10
42141;DHT22;27809;51.864;5.646;2022-07-30T08:01:02;20.50;90.30
42141;DHT22;27809;51.864;5.646;2022-07-30T08:03:27;20.90;89.30
42141;DHT22;27809;51.864;5.646;2022-07-30T08:05:53;21.00;87.90
42141;DHT22;27809;51.864;5.646;2022-07-30T08:08:18;21.20;89.40
42141;DHT22;27809;51.864;5.646;2022-07-30T08:10:44;21.00;88.70
42141;DHT22;27809;51.864;5.646;2022-07-30T08:13:09;21.00;89.40
42141;DHT22;27809;51.864;5.646;2022-07-30T08:15:35;20.80;87.70
42141;DHT22;27809;51.864;5.646;2022-07-30T08:18:01;21.00;88.80
42141;DHT22;27809;51.864;5.646;2022-07-30T08:20:26;21.80;80.90
42141;DHT22;27809;51.864;5.646;2022-07-30T08:22:52;21.50;83.30
42141;DHT22;27809;51.864;5.646;2022-07-30T08:25:17;21.00;84.60
42141;DHT22;27809;51.864;5.646;2022-07-30T08:27:44;20.40;89.00
42141;DHT22;27809;51.864;5.646;2022-07-30T08:30:10;20.90;88.80
42141;DHT22;27809;51.864;5.646;2022-07-30T08:32:36;21.20;85.90
42141;DHT22;27809;51.864;5.646;2022-07-30T08:35:02;21.20;86.60
42141;DHT22;27809;51.864;5.646;2022-07-30T08:37:28;21.30;86.50
42141;DHT22;27809;51.864;5.646;2022-07-30T08:39:54;21.60;83.70
42141;DHT22;27809;51.864;5.646;2022-07-30T08:42:20;21.70;85.80
42141;DHT22;27809;51.864;5.646;2022-07-30T08:44:46;22.10;80.70
42141;DHT22;27809;51.864;5.646;2022-07-30T08:47:16;22.00;79.90
42141;DHT22;27809;51.864;5.646;2022-07-30T08:49:44;22.20;79.40
42141;DHT22;27809;51.864;5.646;2022-07-30T08:52:10;21.90;79.90
42141;DHT22;27809;51.864;5.646;2022-07-30T08:54:36;20.90;81.10
42141;DHT22;27809;51.864;5.646;2022-07-30T08:57:03;20.80;81.60
42141;DHT22;27809;51.864;5.646;2022-07-30T08:59:29;21.20;78.80
42141;DHT22;27809;51.864;5.646;2022-07-30T09:01:57;21.60;76.60
42141;DHT22;27809;51.864;5.646;2022-07-30T09:04:23;21.90;77.60
42141;DHT22;27809;51.864;5.646;2022-07-30T09:06:49;22.10;74.30
42141;DHT22;27809;51.864;5.646;2022-07-30T09:09:15;22.10;73.10
42141;DHT22;27809;51.864;5.646;2022-07-30T09:11:40;22.50;71.20
42141;DHT22;27809;51.864;5.646;2022-07-30T09:14:11;22.80;73.30
42141;DHT22;27809;51.864;5.646;2022-07-30T09:16:36;22.60;72.60
42141;DHT22;27809;51.864;5.646;2022-07-30T09:19:19;23.40;69.20
42141;DHT22;27809;51.864;5.646;2022-07-30T09:21:58;23.60;68.30
42141;DHT22;27809;51.864;5.646;2022-07-30T09:24:25;23.80;63.30
42141;DHT22;27809;51.864;5.646;2022-07-30T09:27:00;23.60;65.40
42141;DHT22;27809;51.864;5.646;2022-07-30T09:29:28;23.30;64.10
42141;DHT22;27809;51.864;5.646;2022-07-30T09:31:55;23.90;66.60
42141;DHT22;27809;51.864;5.646;2022-07-30T09:34:33;24.20;62.80
42141;DHT22;27809;51.864;5.646;2022-07-30T09:37:06;24.30;66.10
42141;DHT22;27809;51.864;5.646;2022-07-30T09:39:41;24.10;65.00
42141;DHT22;27809;51.864;5.646;2022-07-30T09:42:22;23.90;62.40
42141;DHT22;27809;51.864;5.646;2022-07-30T09:44:48;23.80;61.40
42141;DHT22;27809;51.864;5.646;2022-07-30T09:47:29;24.00;58.40
42141;DHT22;27809;51.864;5.646;2022-07-30T09:52:37;24.90;58.30
42141;DHT22;27809;51.864;5.646;2022-07-30T09:55:03;24.60;57.20
42141;DHT22;27809;51.864;5.646;2022-07-30T09:57:29;24.70;57.60
42141;DHT22;27809;51.864;5.646;2022-07-30T10:00:15;24.70;56.70
42141;DHT22;27809;51.864;5.646;2022-07-30T10:02:41;25.00;57.10
42141;DHT22;27809;51.864;5.646;2022-07-30T10:05:11;25.40;55.60
42141;DHT22;27809;51.864;5.646;2022-07-30T10:07:37;25.20;56.60
42141;DHT22;27809;51.864;5.646;2022-07-30T10:10:03;24.60;56.70
42141;DHT22;27809;51.864;5.646;2022-07-30T10:12:31;24.70;56.10
42141;DHT22;27809;51.864;5.646;2022-07-30T10:14:59;25.10;55.80
42141;DHT22;27809;51.864;5.646;2022-07-30T10:17:26;25.20;55.20
42141;DHT22;27809;51.864;5.646;2022-07-30T10:19:52;25.40;53.70
42141;DHT22;27809;51.864;5.646;2022-07-30T10:22:18;25.20;55.60
42141;DHT22;27809;51.864;5.646;2022-07-30T10:24:45;25.10;54.50
42141;DHT22;27809;51.864;5.646;2022-07-30T10:27:11;24.80;54.80
42141;DHT22;27809;51.864;5.646;2022-07-30T10:29:37;25.20;54.10
42141;DHT22;27809;51.864;5.646;2022-07-30T10:32:04;25.70;52.50
42141;DHT22;27809;51.864;5.646;2022-07-30T10:34:31;25.60;53.80
42141;DHT22;27809;51.864;5.646;2022-07-30T10:37:00;25.20;55.40
42141;DHT22;27809;51.864;5.646;2022-07-30T10:39:31;25.80;52.70
42141;DHT22;27809;51.864;5.646;2022-07-30T10:47:52;25.20;52.60
42141;DHT22;27809;51.864;5.646;2022-07-30T10:50:22;25.50;52.80
42141;DHT22;27809;51.864;5.646;2022-07-30T10:52:58;25.30;53.90
42141;DHT22;27809;51.864;5.646;2022-07-30T10:55:27;25.20;53.60
42141;DHT22;27809;51.864;5.646;2022-07-30T10:58:12;24.80;54.60
42141;DHT22;27809;51.864;5.646;2022-07-30T11:00:57;25.30;54.40
42141;DHT22;27809;51.864;5.646;2022-07-30T11:06:22;25.50;53.60
42141;DHT22;27809;51.864;5.646;2022-07-30T11:08:38;25.50;52.60
42141;DHT22;27809;51.864;5.646;2022-07-30T11:13:59;25.40;51.80
42141;DHT22;27809;51.864;5.646;2022-07-30T11:19:12;25.80;50.30
42141;DHT22;27809;51.864;5.646;2022-07-30T11:21:42;26.20;50.10
42141;DHT22;27809;51.864;5.646;2022-07-30T11:24:44;25.50;51.70
42141;DHT22;27809;51.864;5.646;2022-07-30T11:27:37;25.50;51.60
42141;DHT22;27809;51.864;5.646;2022-07-30T11:32:55;25.60;52.80
42141;DHT22;27809;51.864;5.646;2022-07-30T11:38:09;26.40;49.40
42141;DHT22;27809;51.864;5.646;2022-07-30T11:41:07;25.50;51.80
42141;DHT22;27809;51.864;5.646;2022-07-30T11:43:29;25.50;49.90
42141;DHT22;27809;51.864;5.646;2022-07-30T11:46:16;25.60;52.30
42141;DHT22;27809;51.864;5.646;2022-07-30T11:48:58;25.90;52.00
42141;DHT22;27809;51.864;5.646;2022-07-30T11:51:24;25.50;50.30
42141;DHT22;27809;51.864;5.646;2022-07-30T11:54:04;25.30;50.10
42141;DHT22;27809;51.864;5.646;2022-07-30T11:56:30;25.00;50.20
42141;DHT22;27809;51.864;5.646;2022-07-30T11:59:08;25.10;51.00
42141;DHT22;27809;51.864;5.646;2022-07-30T12:01:34;25.40;53.00
42141;DHT22;27809;51.864;5.646;2022-07-30T12:04:04;25.70;52.60
42141;DHT22;27809;51.864;5.646;2022-07-30T12:06:30;26.20;51.70
42141;DHT22;27809;51.864;5.646;2022-07-30T12:08:57;26.00;49.50
42141;DHT22;27809;51.864;5.646;2022-07-30T12:11:23;25.70;50.00
42141;DHT22;27809;51.864;5.646;2022-07-30T12:13:57;25.20;50.00
42141;DHT22;27809;51.864;5.646;2022-07-30T12:16:24;25.50;51.00
42141;DHT22;27809;51.864;5.646;2022-07-30T12:18:50;25.50;52.90
42141;DHT22;27809;51.864;5.646;2022-07-30T12:21:16;25.40;53.70
42141;DHT22;27809;51.864;5.646;2022-07-30T12:23:52;25.40;52.10
42141;DHT22;27809;51.864;5.646;2022-07-30T12:26:26;25.30;51.50
42141;DHT22;27809;51.864;5.646;2022-07-30T12:28:51;25.10;50.90
42141;DHT22;27809;51.864;5.646;2022-07-30T12:31:17;25.20;52.20
42141;DHT22;27809;51.864;5.646;2022-07-30T12:33:43;25.20;52.30
42141;DHT22;27809;51.864;5.646;2022-07-30T12:36:09;25.00;52.50
42141;DHT22;27809;51.864;5.646;2022-07-30T12:38:47;24.80;52.20
42141;DHT22;27809;51.864;5.646;2022-07-30T12:41:14;25.00;52.20
42141;DHT22;27809;51.864;5.646;2022-07-30T12:43:48;25.10;52.60
42141;DHT22;27809;51.864;5.646;2022-07-30T12:48:48;25.20;51.90
42141;DHT22;27809;51.864;5.646;2022-07-30T12:51:14;25.40;51.50
42141;DHT22;27809;51.864;5.646;2022-07-30T12:53:40;25.50;51.40
42141;DHT22;27809;51.864;5.646;2022-07-30T12:56:13;25.50;50.20
42141;DHT22;27809;51.864;5.646;2022-07-30T12:58:39;25.20;50.20
42141;DHT22;27809;51.864;5.646;2022-07-30T13:01:05;25.50;51.90
42141;DHT22;27809;51.864;5.646;2022-07-30T13:03:31;25.70;50.50
42141;DHT22;27809;51.864;5.646;2022-07-30T13:06:20;25.60;48.50
42141;DHT22;27809;51.864;5.646;2022-07-30T13:08:58;25.30;50.40
42141;DHT22;27809;51.864;5.646;2022-07-30T13:11:26;25.60;51.20
42141;DHT22;27809;51.864;5.646;2022-07-30T13:14:01;25.40;54.20
42141;DHT22;27809;51.864;5.646;2022-07-30T13:16:30;25.40;51.60
42141;DHT22;27809;51.864;5.646;2022-07-30T13:18:56;25.40;51.10
42141;DHT22;27809;51.864;5.646;2022-07-30T13:21:22;25.30;51.00
42141;DHT22;27809;51.864;5.646;2022-07-30T13:23:48;25.20;52.20
42141;DHT22;27809;51.864;5.646;2022-07-30T13:26:13;25.10;52.20
42141;DHT22;27809;51.864;5.646;2022-07-30T13:28:39;25.20;52.00
42141;DHT22;27809;51.864;5.646;2022-07-30T13:31:05;25.30;51.60
42141;DHT22;27809;51.864;5.646;2022-07-30T13:33:32;25.20;50.60
42141;DHT22;27809;51.864;5.646;2022-07-30T13:35:58;25.20;50.80
42141;DHT22;27809;51.864;5.646;2022-07-30T13:38:24;25.40;52.00
42141;DHT22;27809;51.864;5.646;2022-07-30T13:40:50;25.20;51.70
42141;DHT22;27809;51.864;5.646;2022-07-30T13:43:16;25.50;52.20
42141;DHT22;27809;51.864;5.646;2022-07-30T13:45:41;25.60;50.70
42141;DHT22;27809;51.864;5.646;2022-07-30T13:48:07;25.60;51.60
42141;DHT22;27809;51.864;5.646;2022-07-30T13:50:32;25.60;49.20
42141;DHT22;27809;51.864;5.646;2022-07-30T13:52:58;26.20;51.20
42141;DHT22;27809;51.864;5.646;2022-07-30T13:55:24;26.30;49.60
42141;DHT22;27809;51.864;5.646;2022-07-30T13:57:49;26.10;49.10
42141;DHT22;27809;51.864;5.646;2022-07-30T14:00:15;25.90;49.00
42141;DHT22;27809;51.864;5.646;2022-07-30T14:02:41;26.10;49.70
42141;DHT22;27809;51.864;5.646;2022-07-30T14:05:07;26.30;50.30
42141;DHT22;27809;51.864;5.646;2022-07-30T14:07:33;25.60;50.50
42141;DHT22;27809;51.864;5.646;2022-07-30T14:09:59;25.70;51.70
42141;DHT22;27809;51.864;5.646;2022-07-30T14:12:25;25.60;51.20
42141;DHT22;27809;51.864;5.646;2022-07-30T14:14:50;25.70;53.50
42141;DHT22;27809;51.864;5.646;2022-07-30T14:17:16;25.60;52.60
42141;DHT22;27809;51.864;5.646;2022-07-30T14:19:42;25.50;54.50
42141;DHT22;27809;51.864;5.646;2022-07-30T14:22:07;25.60;52.70
42141;DHT22;27809;51.864;5.646;2022-07-30T14:24:33;25.60;50.20
42141;DHT22;27809;51.864;5.646;2022-07-30T14:26:58;25.80;50.40
42141;DHT22;27809;51.864;5.646;2022-07-30T14:29:27;25.60;50.40
42141;DHT22;27809;51.864;5.646;2022-07-30T14:31:53;25.40;51.60
42141;DHT22;27809;51.864;5.646;2022-07-30T14:34:19;25.70;51.80
42141;DHT22;27809;51.864;5.646;2022-07-30T14:36:44;25.60;50.30
42141;DHT22;27809;51.864;5.646;2022-07-30T14:39:10;25.90;49.00
42141;DHT22;27809;51.864;5.646;2022-07-30T14:41:35;25.90;48.10
42141;DHT22;27809;51.864;5.646;2022-07-30T14:44:03;25.90;49.90
42141;DHT22;27809;51.864;5.646;2022-07-30T14:46:29;25.90;51.20
42141;DHT22;27809;51.864;5.646;2022-07-30T14:48:54;25.80;50.80
42141;DHT22;27809;51.864;5.646;2022-07-30T14:51:20;25.60;53.50
42141;DHT22;27809;51.864;5.646;2022-07-30T14:53:46;25.30;53.10
42141;DHT22;27809;51.864;5.646;2022-07-30T14:56:12;25.50;52.30
42141;DHT22;27809;51.864;5.646;2022-07-30T14:58:38;25.40;51.40
42141;DHT22;27809;51.864;5.646;2022-07-30T15:01:03;25.00;53.80
42141;DHT22;27809;51.864;5.646;2022-07-30T15:03:33;24.80;55.20
42141;DHT22;27809;51.864;5.646;2022-07-30T15:05:59;24.90;53.90
42141;DHT22;27809;51.864;5.646;2022-07-30T15:08:24;24.70;54.90
42141;DHT22;27809;51.864;5.646;2022-07-30T15:10:50;24.90;54.10
42141;DHT22;27809;51.864;5.646;2022-07-30T15:13:15;24.80;51.80
42141;DHT22;27809;51.864;5.646;2022-07-30T15:15:41;24.90;53.00
42141;DHT22;27809;51.864;5.646;2022-07-30T15:18:06;25.10;54.90
42141;DHT22;27809;51.864;5.646;2022-07-30T15:20:32;25.20;53.20
42141;DHT22;27809;51.864;5.646;2022-07-30T15:22:57;25.20;53.80
42141;DHT22;27809;51.864;5.646;2022-07-30T15:25:23;25.50;53.40
42141;DHT22;27809;51.864;5.646;2022-07-30T15:27:49;25.70;53.30
42141;DHT22;27809;51.864;5.646;2022-07-30T15:30:16;25.80;53.60
42141;DHT22;27809;51.864;5.646;2022-07-30T15:32:42;26.20;52.70
42141;DHT22;27809;51.864;5.646;2022-07-30T15:35:07;26.10;51.50
42141;DHT22;27809;51.864;5.646;2022-07-30T15:37:33;26.20;53.00
42141;DHT22;27809;51.864;5.646;2022-07-30T15:39:58;26.30;50.40
42141;DHT22;27809;51.864;5.646;2022-07-30T15:42:24;26.30;52.00
42141;DHT22;27809;51.864;5.646;2022-07-30T15:44:51;26.10;50.20
42141;DHT22;27809;51.864;5.646;2022-07-30T15:47:17;26.20;51.80
42141;DHT22;27809;51.864;5.646;2022-07-30T15:49:43;26.20;51.50
42141;DHT22;27809;51.864;5.646;2022-07-30T15:52:09;26.00;52.10
42141;DHT22;27809;51.864;5.646;2022-07-30T15:54:34;25.80;51.10
42141;DHT22;27809;51.864;5.646;2022-07-30T15:57:00;25.70;50.80
42141;DHT22;27809;51.864;5.646;2022-07-30T15:59:26;25.80;51.40
42141;DHT22;27809;51.864;5.646;2022-07-30T16:01:52;25.50;53.10
42141;DHT22;27809;51.864;5.646;2022-07-30T16:04:17;25.40;54.40